Time;durP1;ratioP1;P1;durP2;ratioP2;P2;SDS_P1;SDS_P2;PMS_P1;PMS_P2;Temp;Humidity;BMP_temperature;BMP_pressure;BME280_temperature;BME280_humidity;BME280_pressure;Samples;Min_cycle;Max_cycle;Signal;HPM_P1;HPM_P2
2021/09/09 00:00:40;;;;;;;31.13;20.80;;;;;;;17.39;87.71;101175.97;5038716;28;20049;-65
2021/09/09 00:03:08;;;;;;;37.45;21.98;;;;;;;17.34;87.92;101169.97;5041539;28;20053;-65
2021/09/09 00:05:36;;;;;;;33.22;20.90;;;;;;;17.34;88.04;101180.75;5036979;28;20545;-65
2021/09/09 00:08:04;;;;;;;34.78;20.95;;;;;;;17.27;88.23;101171.28;5036507;28;20053;-69
2021/09/09 00:10:34;;;;;;;38.10;22.83;;;;;;;17.22;88.25;101185.00;5040102;28;20053;-69
2021/09/09 00:13:02;;;;;;;38.30;21.42;;;;;;;17.21;88.68;101179.69;5039032;28;20056;-69
2021/09/09 00:15:30;;;;;;;35.17;21.55;;;;;;;17.14;88.40;101171.06;5036811;28;20221;-69
2021/09/09 00:17:58;;;;;;;37.28;22.13;;;;;;;17.10;88.44;101169.50;5037262;28;20094;-69
2021/09/09 00:20:26;;;;;;;34.17;20.75;;;;;;;17.07;88.57;101172.34;5036657;28;20075;-69
2021/09/09 00:22:54;;;;;;;38.25;21.08;;;;;;;17.03;88.45;101170.78;5039572;28;20118;-70
2021/09/09 00:25:21;;;;;;;36.03;20.88;;;;;;;16.99;88.85;101170.06;5035236;28;20049;-69
2021/09/09 00:27:53;;;;;;;35.92;22.08;;;;;;;16.96;89.04;101162.16;5036386;28;20052;-65
2021/09/09 00:30:21;;;;;;;34.58;21.65;;;;;;;16.96;88.93;101160.31;5038572;28;20052;-65
2021/09/09 00:32:48;;;;;;;36.38;21.63;;;;;;;16.94;88.94;101161.34;5036090;28;20151;-65
2021/09/09 00:35:16;;;;;;;34.33;22.20;;;;;;;16.92;88.93;101163.25;5040022;28;20056;-65
2021/09/09 00:37:44;;;;;;;44.75;23.42;;;;;;;16.91;88.83;101157.00;5035575;28;20056;-69
2021/09/09 00:40:13;;;;;;;39.65;22.70;;;;;;;16.87;89.24;101154.56;5036700;28;20048;-70
2021/09/09 00:42:44;;;;;;;42.47;24.23;;;;;;;16.87;89.37;101154.56;5038940;28;20045;-70
2021/09/09 00:45:13;;;;;;;38.72;23.45;;;;;;;16.86;88.71;101151.00;5035615;28;20052;-70
2021/09/09 00:47:42;;;;;;;40.10;23.70;;;;;;;16.84;89.08;101146.59;5041225;28;20044;-70
2021/09/09 00:50:11;;;;;;;39.38;23.25;;;;;;;16.80;88.81;101141.38;5035642;28;20139;-69
2021/09/09 00:52:41;;;;;;;40.85;24.20;;;;;;;16.78;88.89;101151.34;5040326;28;20102;-70
2021/09/09 00:55:09;;;;;;;40.78;24.27;;;;;;;16.75;89.30;101138.06;5036676;28;20052;-69
2021/09/09 00:57:37;;;;;;;42.63;22.80;;;;;;;16.76;89.25;101134.41;5036182;28;20090;-69
2021/09/09 01:00:06;;;;;;;40.70;24.60;;;;;;;16.74;89.34;101135.47;5037481;28;20056;-69
2021/09/09 01:02:36;;;;;;;41.30;22.50;;;;;;;16.71;89.05;101120.31;5035666;28;20132;-69
2021/09/09 01:05:05;;;;;;;43.95;24.45;;;;;;;16.69;89.34;101119.53;5039807;28;20057;-69
2021/09/09 01:07:33;;;;;;;42.30;25.42;;;;;;;16.68;89.49;101125.00;5032881;28;20099;-70
2021/09/09 01:10:01;;;;;;;42.00;25.15;;;;;;;16.69;89.45;101115.97;5039065;28;20477;-69
2021/09/09 01:12:29;;;;;;;41.85;24.88;;;;;;;16.62;89.49;101115.44;5037716;28;20049;-69
2021/09/09 01:14:57;;;;;;;42.70;25.65;;;;;;;16.57;89.54;101109.41;5036238;28;20057;-69
2021/09/09 01:17:24;;;;;;;44.90;25.58;;;;;;;16.53;89.99;101115.88;5039854;28;20696;-69
2021/09/09 01:19:53;;;;;;;40.40;24.45;;;;;;;16.52;90.39;101108.78;5033274;28;20084;-69
2021/09/09 01:22:21;;;;;;;40.35;25.83;;;;;;;16.51;90.33;101112.41;5038276;28;20381;-69
2021/09/09 01:24:50;;;;;;;40.53;24.88;;;;;;;16.48;90.35;101102.69;5033025;28;20492;-69
2021/09/09 01:27:18;;;;;;;38.58;23.40;;;;;;;16.43;90.72;101104.75;5037045;28;20120;-69
2021/09/09 01:29:48;;;;;;;43.72;25.08;;;;;;;16.40;90.77;101103.06;5037298;28;20084;-69
2021/09/09 01:32:16;;;;;;;39.65;23.85;;;;;;;16.39;90.84;101103.16;5035831;28;20050;-69
2021/09/09 01:34:44;;;;;;;41.53;25.00;;;;;;;16.37;91.03;101096.97;5039010;28;20492;-69
2021/09/09 01:37:12;;;;;;;44.00;26.02;;;;;;;16.35;91.06;101102.44;5035687;28;20654;-69
2021/09/09 01:39:44;;;;;;;47.00;26.80;;;;;;;16.33;90.85;101101.66;5037340;28;20086;-69
2021/09/09 01:42:14;;;;;;;45.97;24.50;;;;;;;16.31;91.29;101108.94;5036600;28;20251;-69
2021/09/09 01:44:42;;;;;;;44.83;24.83;;;;;;;16.29;91.14;101109.97;5038358;28;20491;-69
2021/09/09 01:47:10;;;;;;;46.67;26.00;;;;;;;16.24;91.46;101113.78;5038711;28;20205;-70
2021/09/09 01:49:38;;;;;;;49.28;27.75;;;;;;;16.23;91.64;101111.16;5032515;28;20103;-70
2021/09/09 01:52:06;;;;;;;45.42;27.70;;;;;;;16.21;91.60;101105.84;5038934;28;20040;-71
2021/09/09 01:54:34;;;;;;;43.85;25.25;;;;;;;16.18;91.62;101108.69;5033555;28;20083;-68
2021/09/09 01:57:03;;;;;;;44.78;27.63;;;;;;;16.14;92.10;101112.50;5035464;28;20086;-68
2021/09/09 01:59:32;;;;;;;46.95;26.35;;;;;;;16.13;91.82;101104.50;5037496;28;20657;-69
2021/09/09 02:02:00;;;;;;;49.22;27.55;;;;;;;16.22;91.30;101106.72;5034061;28;20087;-68
2021/09/09 02:04:29;;;;;;;46.58;27.02;;;;;;;16.21;91.41;101105.84;5040295;28;20124;-64
2021/09/09 02:06:57;;;;;;;41.75;25.58;;;;;;;16.19;91.03;101107.75;5033260;28;20088;-64
2021/09/09 02:09:25;;;;;;;47.30;26.92;;;;;;;16.23;91.31;101103.09;5036753;28;20076;-64
2021/09/09 02:11:52;;;;;;;40.92;24.45;;;;;;;16.22;91.01;101102.19;5036494;28;20102;-64
2021/09/09 02:14:20;;;;;;;50.45;26.55;;;;;;;16.19;90.97;101105.06;5035366;28;20049;-64
2021/09/09 02:16:51;;;;;;;47.22;26.98;;;;;;;16.17;90.84;101103.41;5036721;28;20461;-64
2021/09/09 02:19:20;;;;;;;43.38;24.45;;;;;;;16.18;90.82;101097.94;5034069;28;20390;-64
2021/09/09 02:21:47;;;;;;;46.00;27.73;;;;;;;16.15;90.90;101108.84;5038442;28;20508;-64
2021/09/09 02:24:15;;;;;;;50.80;28.30;;;;;;;16.10;90.96;101108.22;5031293;28;20052;-64
2021/09/09 02:26:43;;;;;;;44.25;26.48;;;;;;;16.11;90.90;101103.72;5035095;28;20375;-68
2021/09/09 02:29:11;;;;;;;50.80;27.40;;;;;;;16.10;91.01;101101.97;5037332;28;20057;-68
2021/09/09 02:31:39;;;;;;;51.28;28.63;;;;;;;16.05;91.01;101108.44;5035849;28;20512;-69
2021/09/09 02:34:08;;;;;;;50.05;28.95;;;;;;;16.02;91.46;101099.66;5038072;28;20188;-69
2021/09/09 02:36:36;;;;;;;47.17;28.05;;;;;;;15.98;91.33;101101.63;5032062;28;20052;-69
2021/09/09 02:39:04;;;;;;;43.92;26.35;;;;;;;15.97;91.76;101099.91;5039491;28;20116;-65
2021/09/09 02:41:32;;;;;;;54.00;28.48;;;;;;;15.96;91.31;101098.16;5035440;28;20140;-64
2021/09/09 02:43:59;;;;;;;46.97;28.02;;;;;;;15.97;91.28;101096.31;5037725;28;20068;-65
2021/09/09 02:46:27;;;;;;;51.00;27.90;;;;;;;15.95;91.28;101095.53;5040480;28;20134;-65
2021/09/09 02:48:55;;;;;;;47.35;25.95;;;;;;;15.92;91.53;101087.63;5034205;28;20048;-64
2021/09/09 02:51:24;;;;;;;48.42;29.08;;;;;;;15.86;91.50;101091.50;5035851;28;20056;-65
2021/09/09 02:53:52;;;;;;;50.85;28.45;;;;;;;15.87;91.23;101083.34;5036190;28;20080;-65
2021/09/09 02:56:19;;;;;;;48.85;28.50;;;;;;;15.87;91.20;101079.78;5034961;28;20053;-65
2021/09/09 02:58:47;;;;;;;52.25;29.40;;;;;;;15.84;91.35;101080.81;5036308;28;20263;-65
2021/09/09 03:01:15;;;;;;;48.28;27.73;;;;;;;15.80;91.27;101084.63;5033955;28;20452;-64
2021/09/09 03:03:43;;;;;;;47.55;27.42;;;;;;;15.81;91.21;101086.34;5034942;28;20596;-64
2021/09/09 03:06:11;;;;;;;47.88;27.35;;;;;;;15.80;91.40;101068.47;5032412;28;20824;-64
2021/09/09 03:08:40;;;;;;;46.30;26.40;;;;;;;15.78;91.31;101073.06;5036938;28;20057;-65
2021/09/09 03:11:09;;;;;;;52.63;29.77;;;;;;;15.76;91.54;101063.31;5036996;28;20143;-65
2021/09/09 03:13:36;;;;;;;56.05;29.00;;;;;;;15.73;91.52;101060.75;5029735;28;20505;-64
2021/09/09 03:16:05;;;;;;;51.63;29.27;;;;;;;15.68;91.90;101067.22;5039806;28;20841;-65
2021/09/09 03:18:33;;;;;;;48.08;28.17;;;;;;;15.66;91.76;101062.84;5033908;28;20497;-65
2021/09/09 03:21:00;;;;;;;51.25;28.58;;;;;;;15.63;91.95;101050.44;5041103;28;20430;-64
2021/09/09 03:23:28;;;;;;;49.97;28.00;;;;;;;15.63;92.01;101057.63;5038763;28;20084;-64
2021/09/09 03:25:59;;;;;;;55.45;29.73;;;;;;;15.61;92.25;101062.22;5039243;28;20143;-64
2021/09/09 03:28:27;;;;;;;50.10;28.30;;;;;;;15.57;92.26;101057.94;5039357;28;20123;-64
2021/09/09 03:30:55;;;;;;;55.17;29.27;;;;;;;15.55;92.25;101062.53;5038863;28;20095;-65
2021/09/09 03:33:23;;;;;;;53.75;29.73;;;;;;;15.56;92.26;101066.94;5039740;28;20053;-64
2021/09/09 03:35:51;;;;;;;50.92;29.17;;;;;;;15.53;92.13;101067.09;5036895;28;20544;-64
2021/09/09 03:38:18;;;;;;;54.15;30.20;;;;;;;15.47;92.27;101079.03;5041216;28;20511;-64
2021/09/09 03:40:46;;;;;;;51.15;30.65;;;;;;;15.46;92.32;101079.97;5040607;28;20079;-64
2021/09/09 03:43:15;;;;;;;53.42;28.92;;;;;;;15.42;92.57;101078.38;5037918;28;20139;-65
2021/09/09 03:45:43;;;;;;;52.05;28.45;;;;;;;15.40;92.70;101073.09;5039762;28;20609;-68
2021/09/09 03:48:11;;;;;;;49.63;27.45;;;;;;;15.38;92.91;101079.50;5033501;28;20096;-69
2021/09/09 03:50:39;;;;;;;43.08;26.83;;;;;;;15.36;92.61;101076.88;5040562;28;20220;-68
2021/09/09 03:53:07;;;;;;;48.70;28.67;;;;;;;15.34;92.79;101072.50;5037556;28;20052;-68
2021/09/09 03:55:35;;;;;;;52.85;30.02;;;;;;;15.31;93.04;101077.09;5037655;28;20442;-68
2021/09/09 03:58:03;;;;;;;49.42;28.38;;;;;;;15.29;93.24;101075.44;5038254;28;20053;-69
2021/09/09 04:00:32;;;;;;;56.33;29.98;;;;;;;15.26;93.65;101071.06;5038137;28;20141;-69
2021/09/09 04:03:02;;;;;;;51.58;28.95;;;;;;;15.24;93.81;101064.91;5038256;28;20171;-69
2021/09/09 04:05:31;;;;;;;52.58;28.50;;;;;;;15.21;93.69;101056.97;5037600;28;20053;-71
2021/09/09 04:07:59;;;;;;;51.30;28.77;;;;;;;15.19;93.92;101064.25;5038556;28;20138;-70
2021/09/09 04:10:27;;;;;;;49.35;28.38;;;;;;;15.16;93.76;101067.06;5037305;28;20053;-70
2021/09/09 04:12:55;;;;;;;49.45;27.83;;;;;;;15.13;93.60;101061.84;5037786;28;20071;-70
2021/09/09 04:15:23;;;;;;;50.67;27.65;;;;;;;15.12;93.83;101070.88;5039075;28;20064;-69
2021/09/09 04:17:52;;;;;;;51.30;28.48;;;;;;;15.10;93.95;101067.34;5036947;28;20048;-70
2021/09/09 04:20:20;;;;;;;52.28;29.38;;;;;;;15.08;94.23;101064.72;5040042;28;20059;-70
2021/09/09 04:22:48;;;;;;;51.22;27.77;;;;;;;15.08;94.11;101056.66;5034698;28;20056;-70
2021/09/09 04:25:17;;;;;;;48.90;28.95;;;;;;;15.07;94.17;101054.94;5037940;28;20057;-71
2021/09/09 04:27:44;;;;;;;50.67;28.88;;;;;;;15.07;94.02;101052.25;5041001;28;20069;-69
2021/09/09 04:30:12;;;;;;;52.78;28.63;;;;;;;15.05;93.81;101038.03;5037096;28;20072;-69
2021/09/09 04:32:40;;;;;;;49.65;26.25;;;;;;;15.06;94.17;101036.22;5039759;28;20048;-65
2021/09/09 04:35:10;;;;;;;50.97;29.23;;;;;;;15.06;94.35;101034.38;5039936;28;20079;-65
2021/09/09 04:37:38;;;;;;;52.70;29.20;;;;;;;15.06;94.54;101017.41;5036708;28;20056;-70
2021/09/09 04:40:07;;;;;;;55.08;29.23;;;;;;;15.05;94.47;101021.91;5034433;28;20059;-70
2021/09/09 04:42:35;;;;;;;54.97;29.75;;;;;;;15.06;94.50;101017.41;5038512;28;20061;-70
2021/09/09 04:45:04;;;;;;;53.55;29.40;;;;;;;15.09;94.48;101010.06;5035981;28;20357;-69
2021/09/09 04:47:32;;;;;;;52.08;28.70;;;;;;;15.09;93.98;101017.25;5035026;28;20160;-69
2021/09/09 04:50:00;;;;;;;54.20;30.67;;;;;;;15.10;94.48;101014.50;5035237;28;20107;-69
2021/09/09 04:52:29;;;;;;;53.50;29.00;;;;;;;15.12;93.86;101012.59;5035354;28;20338;-69
2021/09/09 04:54:57;;;;;;;53.08;28.50;;;;;;;15.12;93.99;101014.44;5035532;28;20053;-71
2021/09/09 04:57:24;;;;;;;51.67;29.92;;;;;;;15.11;93.88;101015.34;5037486;28;20122;-69
2021/09/09 04:59:52;;;;;;;52.95;29.33;;;;;;;15.10;93.78;101003.75;5038470;28;20493;-69
2021/09/09 05:02:20;;;;;;;54.92;30.88;;;;;;;15.15;93.81;101008.00;5037790;28;20523;-68
2021/09/09 05:04:48;;;;;;;47.72;27.65;;;;;;;15.15;93.65;101010.72;5034380;28;20057;-65
2021/09/09 05:07:16;;;;;;;51.97;29.35;;;;;;;15.15;93.71;101010.72;5035456;28;20588;-65
2021/09/09 05:09:45;;;;;;;55.55;28.58;;;;;;;15.13;93.48;101006.25;5038608;28;20248;-64
2021/09/09 05:12:12;;;;;;;53.38;29.48;;;;;;;15.12;93.81;101001.00;5038859;28;20149;-65
2021/09/09 05:14:40;;;;;;;53.45;29.55;;;;;;;15.16;93.74;101005.25;5035655;28;20052;-64
2021/09/09 05:17:08;;;;;;;51.65;28.30;;;;;;;15.16;93.57;101002.56;5034491;28;20080;-66
2021/09/09 05:19:36;;;;;;;49.58;27.50;;;;;;;15.20;93.46;101004.16;5037791;28;20048;-65
2021/09/09 05:22:04;;;;;;;51.35;29.33;;;;;;;15.21;92.56;101019.34;5035473;28;20048;-65
2021/09/09 05:24:32;;;;;;;46.55;27.27;;;;;;;15.26;92.53;101021.81;5035589;28;20328;-64
2021/09/09 05:27:02;;;;;;;45.78;25.80;;;;;;;15.28;92.28;101027.97;5038336;28;20058;-65
2021/09/09 05:29:30;;;;;;;50.92;28.75;;;;;;;15.30;92.45;101021.56;5039618;28;20059;-64
2021/09/09 05:31:57;;;;;;;49.38;29.60;;;;;;;15.30;92.36;101008.13;5037205;28;20087;-65
2021/09/09 05:34:25;;;;;;;51.47;28.55;;;;;;;15.30;92.75;101016.19;5036265;28;20497;-64
2021/09/09 05:36:53;;;;;;;51.72;29.88;;;;;;;15.31;92.54;101015.25;5037395;28;20118;-64
2021/09/09 05:39:20;;;;;;;50.47;28.73;;;;;;;15.31;92.56;101015.25;5036308;28;20041;-65
2021/09/09 05:41:48;;;;;;;51.50;28.88;;;;;;;15.31;92.78;101007.19;5039528;28;20107;-64
2021/09/09 05:44:17;;;;;;;48.17;26.85;;;;;;;15.35;92.96;100999.84;5036563;28;20077;-65
2021/09/09 05:46:45;;;;;;;52.95;30.15;;;;;;;15.43;92.56;100989.59;5038320;28;20132;-65
2021/09/09 05:49:13;;;;;;;48.80;28.08;;;;;;;15.53;92.12;100991.78;5037058;28;20122;-65
2021/09/09 05:51:40;;;;;;;50.33;28.33;;;;;;;15.60;91.72;100994.13;5035769;28;20142;-65
2021/09/09 05:54:09;;;;;;;51.83;29.70;;;;;;;15.68;91.37;101001.78;5035582;28;20104;-69
2021/09/09 05:56:37;;;;;;;52.20;28.27;;;;;;;15.75;91.14;101005.03;5033477;28;20101;-70
2021/09/09 05:59:04;;;;;;;50.08;28.45;;;;;;;15.82;90.42;101003.81;5038618;28;20171;-70
2021/09/09 06:01:36;;;;;;;50.28;28.70;;;;;;;15.91;90.13;100997.09;5038149;28;20555;-70
2021/09/09 06:04:08;;;;;;;51.35;29.95;;;;;;;16.04;89.99;100999.06;5035413;28;20475;-66
2021/09/09 06:06:36;;;;;;;51.38;29.77;;;;;;;16.13;89.58;100988.75;5035861;28;20076;-66
2021/09/09 06:09:04;;;;;;;55.05;29.23;;;;;;;16.16;88.98;100999.38;5035936;28;20091;-66
2021/09/09 06:11:32;;;;;;;48.85;28.42;;;;;;;16.33;88.45;100999.34;5037020;28;20401;-66
2021/09/09 06:14:00;;;;;;;53.78;29.42;;;;;;;16.39;88.10;100999.00;5031930;28;20095;-66
2021/09/09 06:16:28;;;;;;;50.83;28.13;;;;;;;16.51;87.39;100997.47;5034396;28;20070;-66
2021/09/09 06:18:57;;;;;;;46.75;26.70;;;;;;;16.67;87.28;101005.59;5037757;28;20068;-65
2021/09/09 06:21:25;;;;;;;46.92;27.90;;;;;;;16.79;86.44;100995.97;5034210;28;20068;-64
2021/09/09 06:23:53;;;;;;;44.22;27.00;;;;;;;16.90;85.80;100990.00;5039582;28;20428;-64
2021/09/09 06:26:21;;;;;;;47.00;28.30;;;;;;;16.95;85.70;100993.31;5035770;28;20152;-65
2021/09/09 06:28:49;;;;;;;45.10;26.08;;;;;;;17.14;85.18;100995.81;5034995;28;20048;-64
2021/09/09 06:31:17;;;;;;;51.08;27.92;;;;;;;17.20;84.93;100994.59;5035768;28;20119;-65
2021/09/09 06:33:45;;;;;;;47.58;26.88;;;;;;;17.33;84.56;100993.81;5033029;28;20055;-65
2021/09/09 06:36:17;;;;;;;47.83;27.27;;;;;;;17.45;83.82;100989.53;5035080;28;20107;-64
2021/09/09 06:38:45;;;;;;;43.97;27.45;;;;;;;17.53;83.14;100995.31;5034572;28;20053;-64
2021/09/09 06:41:13;;;;;;;46.15;27.02;;;;;;;17.71;82.25;100996.09;5037782;28;20060;-64
2021/09/09 06:43:40;;;;;;;44.50;26.15;;;;;;;17.84;81.91;101023.22;5034841;28;20198;-64
2021/09/09 06:46:08;;;;;;;42.90;24.95;;;;;;;17.89;81.48;101039.16;5036932;28;20055;-67
2021/09/09 06:48:36;;;;;;;46.03;25.33;;;;;;;18.09;80.65;101048.75;5036958;28;20485;-69
2021/09/09 06:51:04;;;;;;;49.05;25.98;;;;;;;18.37;79.84;101047.97;5033121;28;20910;-69
2021/09/09 06:53:34;;;;;;;42.28;24.05;;;;;;;18.35;79.02;101039.06;5038044;28;20106;-70
2021/09/09 06:56:02;;;;;;;42.47;24.17;;;;;;;18.34;78.54;101040.03;5031888;28;20516;-69
2021/09/09 06:58:29;;;;;;;39.15;22.85;;;;;;;18.74;78.56;101042.09;5036723;28;20055;-70
2021/09/09 07:00:57;;;;;;;41.00;23.88;;;;;;;18.74;77.42;101037.53;5036286;28;20056;-70
2021/09/09 07:03:29;;;;;;;36.70;23.02;;;;;;;19.07;76.46;101028.28;5033154;28;20049;-69
2021/09/09 07:05:58;;;;;;;37.58;21.92;;;;;;;19.44;74.68;101028.56;5038743;28;20840;-69
2021/09/09 07:08:26;;;;;;;39.22;22.08;;;;;;;19.56;73.56;101022.34;5035604;28;20306;-65
2021/09/09 07:10:55;;;;;;;34.80;22.10;;;;;;;19.67;72.90;101016.19;5034773;28;20048;-65
2021/09/09 07:13:23;;;;;;;34.97;20.35;;;;;;;19.97;71.74;101017.81;5033383;28;20056;-65
2021/09/09 07:15:51;;;;;;;36.10;20.42;;;;;;;20.30;70.50;101016.47;5037460;28;20057;-69
2021/09/09 07:18:19;;;;;;;34.38;22.15;;;;;;;20.42;69.51;101012.88;5037895;28;20192;-69
2021/09/09 07:20:47;;;;;;;31.83;20.48;;;;;;;20.58;69.03;101001.81;5033687;28;20055;-69
2021/09/09 07:23:15;;;;;;;34.65;20.20;;;;;;;20.95;67.67;101003.75;5034973;28;20446;-69
2021/09/09 07:25:43;;;;;;;28.63;19.33;;;;;;;21.26;67.01;101000.47;5033068;28;20057;-71
2021/09/09 07:28:12;;;;;;;34.80;19.88;;;;;;;21.53;65.57;100999.41;5034611;28;20785;-69
2021/09/09 07:30:40;;;;;;;31.02;20.05;;;;;;;21.38;65.91;101014.13;5035237;28;20126;-69
2021/09/09 07:33:08;;;;;;;36.65;20.42;;;;;;;20.80;67.42;101017.41;5033487;28;20152;-70
2021/09/09 07:35:36;;;;;;;33.47;19.52;;;;;;;20.94;67.91;101005.56;5036648;28;20112;-70
2021/09/09 07:38:04;;;;;;;32.45;19.65;;;;;;;21.10;65.97;100997.19;5032403;28;21191;-70
2021/09/09 07:40:32;;;;;;;32.50;20.27;;;;;;;21.78;65.44;101005.72;5036680;28;21257;-70
2021/09/09 07:43:01;;;;;;;32.00;18.92;;;;;;;22.12;64.86;101005.81;5036234;28;20060;-70
2021/09/09 07:45:31;;;;;;;28.63;19.70;;;;;;;21.92;64.99;101007.34;5034766;28;20135;-70
2021/09/09 07:47:59;;;;;;;31.27;18.50;;;;;;;21.25;66.00;101015.03;5036958;28;20473;-70
2021/09/09 07:50:27;;;;;;;28.55;18.52;;;;;;;22.13;64.08;101012.97;5035494;28;20060;-70
2021/09/09 07:52:55;;;;;;;27.30;17.83;;;;;;;22.27;62.81;101010.03;5037637;28;20421;-69
2021/09/09 07:55:23;;;;;;;32.20;19.33;;;;;;;22.19;62.28;101016.06;5032904;28;20060;-70
2021/09/09 07:57:51;;;;;;;32.28;18.75;;;;;;;22.70;61.69;101020.22;5038809;28;20500;-70
2021/09/09 08:00:19;;;;;;;34.08;19.85;;;;;;;22.80;61.02;101027.63;5033779;28;20520;-69
2021/09/09 08:02:48;;;;;;;34.03;19.88;;;;;;;22.89;61.30;101024.19;5035008;28;20050;-70
2021/09/09 08:05:17;;;;;;;28.58;18.90;;;;;;;22.52;62.38;101019.84;5037193;28;20060;-70
2021/09/09 08:07:46;;;;;;;30.50;20.70;;;;;;;22.75;61.50;101028.88;5038709;28;20075;-70
2021/09/09 08:10:18;;;;;;;32.22;20.52;;;;;;;22.56;61.95;101043.09;5037586;28;20099;-65
2021/09/09 08:12:47;;;;;;;32.80;19.98;;;;;;;22.96;61.38;101032.72;5034462;28;20077;-65
2021/09/09 08:15:16;;;;;;;35.63;20.48;;;;;;;23.74;60.10;101022.66;5041125;28;20329;-66
2021/09/09 08:17:46;;;;;;;36.65;21.88;;;;;;;23.83;58.66;101030.06;5034702;28;20048;-66
2021/09/09 08:20:18;;;;;;;33.53;21.17;;;;;;;23.35;59.76;101044.94;5035716;28;20042;-65
2021/09/09 08:22:45;;;;;;;35.90;21.52;;;;;;;23.07;60.90;101054.50;5038949;28;20127;-66
2021/09/09 08:25:15;;;;;;;34.38;22.60;;;;;;;22.68;61.83;101052.13;5037541;28;20048;-65
2021/09/09 08:27:44;;;;;;;35.60;21.65;;;;;;;22.54;62.32;101049.63;5038864;28;20152;-65
2021/09/09 08:30:12;;;;;;;35.03;22.30;;;;;;;22.40;63.48;101048.00;5037860;28;20450;-65
2021/09/09 08:32:40;;;;;;;32.85;20.42;;;;;;;22.64;63.05;101042.47;5036203;28;20053;-65
2021/09/09 08:35:09;;;;;;;34.53;21.48;;;;;;;22.68;63.09;101040.38;5039219;28;20176;-65
2021/09/09 08:37:38;;;;;;;38.40;22.75;;;;;;;22.74;63.38;101040.75;5038382;28;20382;-65
2021/09/09 08:40:09;;;;;;;34.30;22.55;;;;;;;22.97;63.12;101043.47;5037992;28;20335;-65
2021/09/09 08:42:40;;;;;;;36.58;22.92;;;;;;;23.36;61.02;101041.22;5036006;28;20045;-65
2021/09/09 08:45:08;;;;;;;35.03;22.33;;;;;;;23.87;59.66;101031.53;5038820;28;20156;-65
2021/09/09 08:47:39;;;;;;;36.28;23.15;;;;;;;24.05;59.03;101023.66;5036092;28;20114;-66
2021/09/09 08:50:09;;;;;;;34.38;22.20;;;;;;;24.55;57.31;101022.97;5037325;28;20480;-66
2021/09/09 08:52:40;;;;;;;38.30;21.13;;;;;;;24.89;57.50;101030.88;5040435;28;20123;-66
2021/09/09 08:55:09;;;;;;;35.95;23.33;;;;;;;25.19;56.23;101032.72;5038291;28;20049;-66
2021/09/09 08:57:38;;;;;;;33.45;23.10;;;;;;;25.07;56.29;101037.41;5036827;28;20546;-68
2021/09/09 09:00:07;;;;;;;33.95;21.45;;;;;;;25.53;55.98;101048.78;5038312;28;20176;-66
2021/09/09 09:02:48;;;;;;;33.03;21.58;;;;;;;24.88;57.08;101037.38;5036810;28;20084;-67
2021/09/09 09:05:21;;;;;;;33.60;21.85;;;;;;;25.05;57.04;101041.31;5038131;28;20144;-66
2021/09/09 09:08:00;;;;;;;30.45;21.58;;;;;;;25.24;56.33;101049.53;5036072;28;20075;-65
2021/09/09 09:10:29;;;;;;;34.50;21.25;;;;;;;25.38;56.34;101037.38;5040026;28;20040;-67
2021/09/09 09:12:57;;;;;;;31.98;20.60;;;;;;;25.56;56.26;101036.69;5040941;28;20089;-66
2021/09/09 09:15:27;;;;;;;31.92;22.08;;;;;;;25.72;55.87;101031.53;5038309;28;20064;-67
2021/09/09 09:18:01;;;;;;;33.85;21.02;;;;;;;25.95;54.85;101043.09;5034575;28;20280;-68
2021/09/09 09:20:42;;;;;;;33.30;21.55;;;;;;;25.90;55.35;101046.22;5039456;28;20044;-69
2021/09/09 09:23:14;;;;;;;35.55;22.63;;;;;;;25.90;55.08;101043.47;5035083;28;20056;-69
2021/09/09 09:25:50;;;;;;;35.30;21.73;;;;;;;26.04;55.07;101042.19;5037411;28;20048;-69
2021/09/09 09:28:39;;;;;;;37.67;23.08;;;;;;;24.98;57.29;101055.50;5034981;28;20392;-69
2021/09/09 09:31:08;;;;;;;35.88;22.95;;;;;;;25.54;56.30;101047.78;5039486;28;20049;-68
2021/09/09 09:33:38;;;;;;;35.65;23.08;;;;;;;25.50;56.39;101046.31;5035350;28;20933;-70
2021/09/09 09:36:17;;;;;;;35.50;23.20;;;;;;;25.86;56.00;101052.09;5034990;28;20048;-69
2021/09/09 09:38:48;;;;;;;34.38;23.15;;;;;;;25.88;55.94;101042.75;5036747;28;20048;-69
2021/09/09 09:41:19;;;;;;;31.73;22.00;;;;;;;26.40;55.09;101044.31;5035123;28;20053;-69
2021/09/09 09:43:54;;;;;;;34.60;22.15;;;;;;;25.91;56.18;101038.84;5037127;28;20064;-65
2021/09/09 09:46:28;;;;;;;35.85;24.92;;;;;;;24.79;58.84;101045.38;5038201;28;20049;-65
2021/09/09 09:48:56;;;;;;;34.55;23.00;;;;;;;24.85;60.14;101049.41;5039509;28;20160;-70
2021/09/09 09:51:40;;;;;;;33.60;22.80;;;;;;;25.20;59.32;101052.69;5034921;28;20049;-71
2021/09/09 09:54:12;;;;;;;39.30;24.98;;;;;;;25.56;58.84;101051.22;5035857;28;20509;-70
2021/09/09 09:56:41;;;;;;;39.22;25.92;;;;;;;26.28;57.69;101043.59;5036535;28;20324;-69
2021/09/09 09:59:09;;;;;;;43.03;26.33;;;;;;;26.60;56.42;101048.72;5034860;28;20056;-70
2021/09/09 10:01:37;;;;;;;56.17;35.25;;;;;;;26.14;57.83;101044.06;5038152;28;20076;-68
2021/09/09 10:04:08;;;;;;;51.88;34.47;;;;;;;26.57;57.92;101040.78;5034263;28;20048;-69
2021/09/09 10:06:43;;;;;;;54.25;35.25;;;;;;;26.81;56.82;101048.50;5038266;28;20167;-69
2021/09/09 10:09:13;;;;;;;63.80;38.78;;;;;;;26.68;56.73;101041.66;5035724;28;20507;-69
2021/09/09 10:11:42;;;;;;;63.45;39.40;;;;;;;26.93;56.53;101046.44;5034931;28;20044;-70
2021/09/09 10:14:18;;;;;;;63.35;39.80;;;;;;;27.18;56.32;101046.78;5034949;28;20346;-70
2021/09/09 10:16:47;;;;;;;60.15;38.13;;;;;;;27.49;55.74;101043.72;5033711;28;20694;-70
2021/09/09 10:19:24;;;;;;;57.45;37.15;;;;;;;27.69;55.26;101048.06;5037146;28;20060;-70
2021/09/09 10:22:02;;;;;;;55.10;34.90;;;;;;;27.34;55.72;101048.88;5031198;28;20117;-66
2021/09/09 10:24:34;;;;;;;53.50;33.88;;;;;;;27.16;55.84;101049.66;5036611;28;20044;-65
2021/09/09 10:27:19;;;;;;;50.70;30.83;;;;;;;27.87;55.53;101042.59;5033071;28;20091;-66
2021/09/09 10:29:49;;;;;;;51.65;31.45;;;;;;;27.34;56.07;101043.38;5035217;28;20053;-66
2021/09/09 10:32:54;;;;;;;54.40;30.83;;;;;;;27.23;56.54;101054.53;5035633;28;20057;-66
2021/09/09 10:35:30;;;;;;;45.85;27.40;;;;;;;27.34;56.01;101054.34;5032881;28;20045;-66
2021/09/09 10:38:04;;;;;;;37.95;24.30;;;;;;;27.72;56.08;101057.81;5037516;28;20535;-65
2021/09/09 10:40:34;;;;;;;39.55;26.70;;;;;;;27.37;56.13;101049.41;5031269;28;20296;-66
2021/09/09 10:43:05;;;;;;;38.63;24.92;;;;;;;27.31;55.36;101051.91;5038703;28;20088;-69
2021/09/09 10:45:39;;;;;;;40.45;25.50;;;;;;;27.90;54.59;101052.34;5034102;28;20120;-70
2021/09/09 10:48:09;;;;;;;39.50;24.65;;;;;;;28.48;53.28;101040.81;5035873;28;20531;-69
2021/09/09 10:50:39;;;;;;;44.30;26.15;;;;;;;27.48;54.74;101047.47;5036782;28;20276;-70
2021/09/09 10:53:08;;;;;;;43.75;25.55;;;;;;;27.69;54.46;101042.56;5034593;28;20057;-70
2021/09/09 10:55:39;;;;;;;34.70;22.45;;;;;;;28.20;54.24;101031.91;5036117;28;20115;-70
2021/09/09 10:58:30;;;;;;;38.45;24.17;;;;;;;27.90;54.77;101042.25;5029584;28;20045;-70
2021/09/09 11:01:01;;;;;;;37.80;25.13;;;;;;;27.53;54.97;101039.66;5035788;28;20088;-71
2021/09/09 11:03:37;;;;;;;33.25;21.77;;;;;;;27.71;54.96;101040.53;5033118;28;20060;-73
2021/09/09 11:06:08;;;;;;;38.33;22.08;;;;;;;27.80;54.01;101041.47;5037932;28;20235;-70
2021/09/09 11:08:36;;;;;;;36.58;23.10;;;;;;;27.66;55.43;101042.03;5033564;28;20123;-71
2021/09/09 11:11:09;;;;;;;34.30;21.95;;;;;;;27.83;54.62;101041.16;5035058;28;20579;-69
2021/09/09 11:13:38;;;;;;;32.75;21.15;;;;;;;27.94;54.62;101043.69;5036760;28;20052;-70
2021/09/09 11:16:19;;;;;;;34.30;20.75;;;;;;;28.01;54.38;101054.00;5033278;28;20049;-70
2021/09/09 11:18:48;;;;;;;32.65;21.65;;;;;;;28.02;54.63;101042.03;5034535;28;20049;-70